createdAt,value
2022-12-07T00:00:55.463Z,2.4
2022-12-07T00:01:55.499Z,2.4
2022-12-07T00:02:55.551Z,2.4
2022-12-07T00:03:55.490Z,2.4
2022-12-07T00:04:55.515Z,2.4
2022-12-07T00:05:55.475Z,2.4
2022-12-07T00:06:55.477Z,2.4
2022-12-07T00:07:55.520Z,2.4
2022-12-07T00:08:55.470Z,2.4
2022-12-07T00:09:55.471Z,2.4
2022-12-07T00:10:55.576Z,2.4
2022-12-07T00:11:55.478Z,2.4
2022-12-07T00:12:55.505Z,2.4
2022-12-07T00:13:55.468Z,2.4
2022-12-07T00:14:55.463Z,2.4
2022-12-07T00:15:55.534Z,2.4
2022-12-07T00:16:55.594Z,2.4
2022-12-07T00:17:55.470Z,2.4
2022-12-07T00:18:55.474Z,2.4
2022-12-07T00:19:55.466Z,2.4
2022-12-07T00:20:55.495Z,2.4
2022-12-07T00:21:55.496Z,2.4
2022-12-07T00:22:55.495Z,2.4
2022-12-07T00:23:55.480Z,2.4
2022-12-07T00:24:55.466Z,2.4
2022-12-07T00:25:55.485Z,2.4
2022-12-07T00:26:55.516Z,2.4
2022-12-07T00:27:55.489Z,2.4
2022-12-07T00:28:55.614Z,2.4
2022-12-07T00:29:55.519Z,2.4
2022-12-07T00:30:55.506Z,2.4
2022-12-07T00:31:55.617Z,2.4
2022-12-07T00:32:55.518Z,2.4
2022-12-07T00:33:55.519Z,2.4
2022-12-07T00:34:55.499Z,2.4
2022-12-07T00:35:55.498Z,2.4
2022-12-07T00:36:55.537Z,2.4
2022-12-07T00:37:55.525Z,2.4
2022-12-07T00:38:55.513Z,2.4
2022-12-07T00:39:55.511Z,2.2
2022-12-07T00:40:55.576Z,2.2
2022-12-07T00:41:55.509Z,2.2
2022-12-07T00:42:55.546Z,2.2
2022-12-07T00:43:55.502Z,2.2
2022-12-07T00:44:55.503Z,2.2
2022-12-07T00:45:55.615Z,2.2
2022-12-07T00:46:55.528Z,2.2
2022-12-07T00:47:55.532Z,2.2
2022-12-07T00:48:55.527Z,2.2
2022-12-07T00:49:55.588Z,2.2
2022-12-07T00:50:55.520Z,2.2
2022-12-07T00:51:55.574Z,1.9
2022-12-07T00:52:55.536Z,1.9
2022-12-07T00:53:55.529Z,1.9
2022-12-07T00:54:55.540Z,1.9
2022-12-07T00:55:55.535Z,1.9
2022-12-07T00:56:55.526Z,1.9
2022-12-07T00:57:55.626Z,1.9
2022-12-07T00:58:55.540Z,1.9
2022-12-07T00:59:55.527Z,1.9
2022-12-07T01:00:55.591Z,1.9
2022-12-07T01:01:55.623Z,1.9
2022-12-07T01:02:55.666Z,1.9
2022-12-07T01:03:55.516Z,1.9
2022-12-07T01:04:55.538Z,1.9
2022-12-07T01:05:55.535Z,1.9
2022-12-07T01:06:55.534Z,1.9
2022-12-07T01:07:55.589Z,1.9
2022-12-07T01:08:55.537Z,1.9
2022-12-07T01:09:55.521Z,1.9
2022-12-07T01:10:55.557Z,1.9
2022-12-07T01:11:55.574Z,1.9
2022-12-07T01:12:55.536Z,1.9
2022-12-07T01:13:55.588Z,1.9
2022-12-07T01:14:55.531Z,1.9
2022-12-07T01:15:55.527Z,1.9
2022-12-07T01:16:55.537Z,1.9
2022-12-07T01:17:55.540Z,1.9
2022-12-07T01:18:55.526Z,1.9
2022-12-07T01:19:55.632Z,1.9
2022-12-07T01:20:55.589Z,1.9
2022-12-07T01:21:55.568Z,1.9
2022-12-07T01:22:55.522Z,1.9
2022-12-07T01:23:55.527Z,1.9
2022-12-07T01:24:55.621Z,1.9
2022-12-07T01:25:55.547Z,1.9
2022-12-07T01:26:55.577Z,1.9
2022-12-07T01:27:55.531Z,1.9
2022-12-07T01:28:55.561Z,1.9
2022-12-07T01:29:55.555Z,1.9
2022-12-07T01:30:55.616Z,1.9
2022-12-07T01:31:55.578Z,1.9
2022-12-07T01:32:55.581Z,1.9
2022-12-07T01:33:55.556Z,1.9
2022-12-07T01:34:55.555Z,1.9
2022-12-07T01:35:55.603Z,1.7
2022-12-07T01:36:55.556Z,1.7
2022-12-07T01:37:55.567Z,1.7
2022-12-07T01:38:55.546Z,1.8
2022-12-07T01:39:55.576Z,1.8
2022-12-07T01:40:55.568Z,1.8
2022-12-07T01:41:55.706Z,1.8
2022-12-07T01:42:55.589Z,1.8
2022-12-07T01:43:55.568Z,1.8
2022-12-07T01:44:55.665Z,1.8
2022-12-07T01:45:55.607Z,1.8
2022-12-07T01:46:55.588Z,1.8
2022-12-07T01:47:55.628Z,1.8
2022-12-07T01:48:55.612Z,1.8
2022-12-07T01:49:55.622Z,1.8
2022-12-07T01:50:55.576Z,1.8
2022-12-07T01:51:55.629Z,1.8
2022-12-07T01:52:55.715Z,1.8
2022-12-07T01:53:55.570Z,1.8
2022-12-07T01:54:55.578Z,1.8
2022-12-07T01:55:55.604Z,1.8
2022-12-07T01:56:55.586Z,1.8
2022-12-07T01:57:55.649Z,1.8
2022-12-07T01:58:55.591Z,1.8
2022-12-07T01:59:55.590Z,1.8
2022-12-07T02:00:55.583Z,1.8
2022-12-07T02:01:55.649Z,1.8
2022-12-07T02:02:55.722Z,1.8
2022-12-07T02:03:55.650Z,1.8
2022-12-07T02:04:55.578Z,1.8
2022-12-07T02:05:55.671Z,1.8
2022-12-07T02:06:55.597Z,1.8
2022-12-07T02:07:55.639Z,1.8
2022-12-07T02:08:55.605Z,1.8
2022-12-07T02:09:55.618Z,1.8
2022-12-07T02:10:55.596Z,1.8
2022-12-07T02:11:55.579Z,1.8
2022-12-07T02:12:55.582Z,1.8
2022-12-07T02:13:55.597Z,1.8
2022-12-07T02:14:55.683Z,1.8
2022-12-07T02:15:55.669Z,1.8
2022-12-07T02:16:55.612Z,1.8
2022-12-07T02:17:55.686Z,1.8
2022-12-07T02:18:55.595Z,1.8
2022-12-07T02:19:55.587Z,1.8
2022-12-07T02:20:55.610Z,1.8
2022-12-07T02:21:55.586Z,1.8
2022-12-07T02:22:55.656Z,1.8
2022-12-07T02:23:55.614Z,1.8
2022-12-07T02:24:55.618Z,1.8
2022-12-07T02:25:55.619Z,1.8
2022-12-07T02:26:55.617Z,1.7
2022-12-07T02:27:55.617Z,1.7
2022-12-07T02:28:55.639Z,1.7
2022-12-07T02:29:55.600Z,1.7
2022-12-07T02:30:55.707Z,1.7
2022-12-07T02:31:55.604Z,1.7
2022-12-07T02:32:55.644Z,1.7
2022-12-07T02:33:55.604Z,1.7
2022-12-07T02:34:55.640Z,1.7
2022-12-07T02:35:55.607Z,1.7
2022-12-07T02:36:55.609Z,1.7
2022-12-07T02:37:55.678Z,1.7
2022-12-07T02:38:55.599Z,1.7
2022-12-07T02:39:55.609Z,1.7
2022-12-07T02:40:55.647Z,1.7
2022-12-07T02:41:55.604Z,1.7
2022-12-07T02:42:55.622Z,1.7
2022-12-07T02:43:55.626Z,1.7
2022-12-07T02:44:55.623Z,1.7
2022-12-07T02:45:55.656Z,1.7
2022-12-07T02:46:55.654Z,1.7
2022-12-07T02:47:55.632Z,1.7
2022-12-07T02:48:55.655Z,1.7
2022-12-07T02:49:55.626Z,1.7
2022-12-07T02:50:55.606Z,1.7
2022-12-07T02:51:55.630Z,1.7
2022-12-07T02:52:55.636Z,1.7
2022-12-07T02:53:55.619Z,1.7
2022-12-07T02:54:55.682Z,1.7
2022-12-07T02:55:55.644Z,1.7
2022-12-07T02:56:55.627Z,1.7
2022-12-07T02:57:55.687Z,1.7
2022-12-07T02:58:55.617Z,1.7
2022-12-07T02:59:55.635Z,1.7
2022-12-07T03:00:55.637Z,1.7
2022-12-07T03:01:55.714Z,1.7
2022-12-07T03:02:55.656Z,1.7
2022-12-07T03:03:55.659Z,1.7
2022-12-07T03:04:55.726Z,1.7
2022-12-07T03:05:55.662Z,1.7
2022-12-07T03:06:55.637Z,1.7
2022-12-07T03:07:55.637Z,1.7
2022-12-07T03:08:55.688Z,1.7
2022-12-07T03:09:55.632Z,1.7
2022-12-07T03:10:55.680Z,1.6
2022-12-07T03:11:55.642Z,1.6
2022-12-07T03:12:55.683Z,1.6
2022-12-07T03:13:55.648Z,1.6
2022-12-07T03:14:55.693Z,1.6
2022-12-07T03:15:55.740Z,1.6
2022-12-07T03:16:55.666Z,1.5
2022-12-07T03:17:55.686Z,1.5
2022-12-07T03:18:55.734Z,1.5
2022-12-07T03:19:55.637Z,1.5
2022-12-07T03:20:55.675Z,1.5
2022-12-07T03:21:55.644Z,1.5
2022-12-07T03:22:55.688Z,1.5
2022-12-07T03:23:55.690Z,1.5
2022-12-07T03:24:55.722Z,1.5
2022-12-07T03:26:00.183Z,1.5
2022-12-07T03:26:55.677Z,1.5
2022-12-07T03:27:55.681Z,1.5
2022-12-07T03:28:55.679Z,1.5
2022-12-07T03:29:55.678Z,1.5
2022-12-07T03:30:55.778Z,1.5
2022-12-07T03:31:55.697Z,1.5
2022-12-07T03:32:55.696Z,1.5
2022-12-07T03:33:55.701Z,1.5
2022-12-07T03:34:55.711Z,1.5
2022-12-07T03:35:55.689Z,1.5
2022-12-07T03:36:55.763Z,1.5
2022-12-07T03:37:55.704Z,1.5
2022-12-07T03:38:55.703Z,1.5
2022-12-07T03:39:55.709Z,1.5
2022-12-07T03:40:55.686Z,1.5
2022-12-07T03:41:55.719Z,1.5
2022-12-07T03:42:55.733Z,1.5
2022-12-07T03:43:55.722Z,1.5
2022-12-07T03:44:55.693Z,1.5
2022-12-07T03:45:55.693Z,1.5
2022-12-07T03:46:55.745Z,1.5
2022-12-07T03:47:55.746Z,1.5
2022-12-07T03:48:55.731Z,1.5
2022-12-07T03:49:55.694Z,1.5
2022-12-07T03:50:55.710Z,1.5
2022-12-07T03:51:55.750Z,1.5
2022-12-07T03:52:55.682Z,1.5
2022-12-07T03:53:55.717Z,1.5
2022-12-07T03:54:55.728Z,1.5
2022-12-07T03:55:55.737Z,1.5
2022-12-07T03:56:55.683Z,1.5
2022-12-07T03:57:55.691Z,1.5
2022-12-07T03:58:55.762Z,1.5
2022-12-07T03:59:55.718Z,1.5
2022-12-07T04:00:55.712Z,1.4
2022-12-07T04:01:55.891Z,1.4
2022-12-07T04:02:55.785Z,1.4
2022-12-07T04:03:55.720Z,1.4
2022-12-07T04:04:55.764Z,1.4
2022-12-07T04:05:55.728Z,1.4
2022-12-07T04:06:55.701Z,1.4
2022-12-07T04:07:55.801Z,1.4
2022-12-07T04:08:55.784Z,1.4
2022-12-07T04:09:55.764Z,1.4
2022-12-07T04:10:55.730Z,1.4
2022-12-07T04:11:55.789Z,1.4
2022-12-07T04:12:55.699Z,1.4
2022-12-07T04:13:55.741Z,1.5
2022-12-07T04:14:55.707Z,1.5
2022-12-07T04:15:55.792Z,1.5
2022-12-07T04:16:55.701Z,1.5
2022-12-07T04:17:55.740Z,1.5
2022-12-07T04:18:55.742Z,1.5
2022-12-07T04:19:55.743Z,1.5
2022-12-07T04:20:55.728Z,1.5
2022-12-07T04:21:55.727Z,1.5
2022-12-07T04:22:55.753Z,1.5
2022-12-07T04:23:55.707Z,1.5
2022-12-07T04:24:55.762Z,1.5
2022-12-07T04:25:55.707Z,1.5
2022-12-07T04:26:55.734Z,1.5
2022-12-07T04:27:55.771Z,1.5
2022-12-07T04:28:55.768Z,1.5
2022-12-07T04:29:55.705Z,1.5
2022-12-07T04:30:55.744Z,1.5
2022-12-07T04:31:55.779Z,1.5
2022-12-07T04:32:55.714Z,1.5
2022-12-07T04:33:55.741Z,1.5
2022-12-07T04:34:56.193Z,1.5
2022-12-07T04:35:55.708Z,1.5
2022-12-07T04:36:55.743Z,1.5
2022-12-07T04:37:55.727Z,1.5
2022-12-07T04:38:55.757Z,1.5
2022-12-07T04:39:55.711Z,1.5
2022-12-07T04:40:55.752Z,1.5
2022-12-07T04:41:55.728Z,1.5
2022-12-07T04:42:55.714Z,1.5
2022-12-07T04:43:55.739Z,1.5
2022-12-07T04:44:55.732Z,1.5
2022-12-07T04:45:55.804Z,1.5
2022-12-07T04:46:55.881Z,1.5
2022-12-07T04:47:55.766Z,1.5
2022-12-07T04:48:55.720Z,1.5
2022-12-07T04:49:55.740Z,1.5
2022-12-07T04:50:55.889Z,1.5
2022-12-07T04:51:55.764Z,1.5
2022-12-07T04:52:55.730Z,1.5
2022-12-07T04:53:55.760Z,1.5
2022-12-07T04:54:55.752Z,1.5
2022-12-07T04:55:55.759Z,1.5
2022-12-07T04:56:55.761Z,1.5
2022-12-07T04:57:55.726Z,1.5
2022-12-07T04:58:55.762Z,1.5
2022-12-07T04:59:55.759Z,1.5
2022-12-07T05:00:55.858Z,1.5
2022-12-07T05:01:55.873Z,1.5
2022-12-07T05:02:55.732Z,1.5
2022-12-07T05:03:55.768Z,1.5
2022-12-07T05:04:55.826Z,1.5
2022-12-07T05:05:55.748Z,1.5
2022-12-07T05:06:55.777Z,1.5
2022-12-07T05:07:55.852Z,1.5
2022-12-07T05:08:56.043Z,1.5
2022-12-07T05:09:55.778Z,1.5
2022-12-07T05:10:56.113Z,1.5
2022-12-07T05:11:56.378Z,1.5
2022-12-07T05:12:55.782Z,1.2
2022-12-07T05:13:55.769Z,1.2
2022-12-07T05:14:56.023Z,1.2
2022-12-07T05:15:56.079Z,1.2
2022-12-07T05:16:55.835Z,1.2
2022-12-07T05:17:56.774Z,1.2
2022-12-07T05:18:55.771Z,1.2
2022-12-07T05:19:55.771Z,1.2
2022-12-07T05:20:55.776Z,1.2
2022-12-07T05:21:55.743Z,1.2
2022-12-07T05:22:55.767Z,1.2
2022-12-07T05:23:55.749Z,1.2
2022-12-07T05:24:56.020Z,1.2
2022-12-07T05:25:55.787Z,1.2
2022-12-07T05:26:55.774Z,1.2
2022-12-07T05:27:55.817Z,1.2
2022-12-07T05:28:55.800Z,1.2
2022-12-07T05:29:55.778Z,1.2
2022-12-07T05:30:59.779Z,1.2
2022-12-07T05:31:55.833Z,1.2
2022-12-07T05:32:55.786Z,1.2
2022-12-07T05:33:55.909Z,1.2
2022-12-07T05:34:55.785Z,1.2
2022-12-07T05:35:55.757Z,1.2
2022-12-07T05:36:55.784Z,1.2
2022-12-07T05:37:55.792Z,1.2
2022-12-07T05:38:55.801Z,1.2
2022-12-07T05:39:56.102Z,1.2
2022-12-07T05:40:55.813Z,1.1
2022-12-07T05:41:55.820Z,1.1
2022-12-07T05:42:58.792Z,1.1
2022-12-07T05:43:55.781Z,1.1
2022-12-07T05:44:55.845Z,1.1
2022-12-07T05:45:55.926Z,1.1
2022-12-07T05:46:55.812Z,1.1
2022-12-07T05:47:55.811Z,1.1
2022-12-07T05:48:55.786Z,1.1
2022-12-07T05:49:55.823Z,1.1
2022-12-07T05:50:55.852Z,1.1
2022-12-07T05:51:55.809Z,1.1
2022-12-07T05:52:55.806Z,1.1
2022-12-07T05:53:55.811Z,1.1
2022-12-07T05:54:55.784Z,1.1
2022-12-07T05:55:55.816Z,1.1
2022-12-07T05:56:55.849Z,1.1
2022-12-07T05:57:55.800Z,1.1
2022-12-07T05:58:55.787Z,1.1
2022-12-07T05:59:55.863Z,1.1
2022-12-07T06:00:55.831Z,1.1
2022-12-07T06:01:55.969Z,1.1
2022-12-07T06:02:55.992Z,1.1
2022-12-07T06:03:55.821Z,1.1
2022-12-07T06:04:55.847Z,1.1
2022-12-07T06:05:55.834Z,1.1
2022-12-07T06:06:56.070Z,1.1
2022-12-07T06:07:55.909Z,1.1
2022-12-07T06:08:55.811Z,1.1
2022-12-07T06:09:55.826Z,1.1
2022-12-07T06:10:55.854Z,1
2022-12-07T06:11:55.845Z,1
2022-12-07T06:12:55.815Z,1
2022-12-07T06:13:55.833Z,1
2022-12-07T06:14:55.860Z,1
2022-12-07T06:15:55.893Z,1
2022-12-07T06:16:55.894Z,1
2022-12-07T06:17:55.832Z,1
2022-12-07T06:18:55.949Z,1
2022-12-07T06:19:55.846Z,1
2022-12-07T06:20:55.876Z,1
2022-12-07T06:21:55.840Z,1
2022-12-07T06:22:55.831Z,1
2022-12-07T06:23:55.843Z,1
2022-12-07T06:24:55.835Z,1
2022-12-07T06:25:55.824Z,1
2022-12-07T06:26:55.877Z,1
2022-12-07T06:27:55.844Z,1
2022-12-07T06:28:55.826Z,1
2022-12-07T06:29:55.825Z,1
2022-12-07T06:30:55.875Z,1
2022-12-07T06:31:55.886Z,1
2022-12-07T06:32:55.849Z,1
2022-12-07T06:33:55.825Z,1
2022-12-07T06:34:55.904Z,1
2022-12-07T06:35:55.847Z,1
2022-12-07T06:36:55.859Z,1
2022-12-07T06:37:55.923Z,1
2022-12-07T06:38:55.854Z,1
2022-12-07T06:39:55.876Z,1
2022-12-07T06:40:56.088Z,1
2022-12-07T06:41:55.861Z,1
2022-12-07T06:42:55.860Z,1
2022-12-07T06:43:56.382Z,1
2022-12-07T06:44:55.893Z,1
2022-12-07T06:45:55.947Z,1
2022-12-07T06:47:12.198Z,1
2022-12-07T06:47:55.895Z,1
2022-12-07T06:48:55.908Z,1
2022-12-07T06:49:55.867Z,1
2022-12-07T06:50:55.888Z,1
2022-12-07T06:51:55.890Z,1
2022-12-07T06:52:55.852Z,1
2022-12-07T06:53:55.888Z,1
2022-12-07T06:54:55.918Z,1
2022-12-07T06:55:55.934Z,1
2022-12-07T06:56:55.905Z,1
2022-12-07T06:57:55.876Z,1
2022-12-07T06:58:55.879Z,1
2022-12-07T06:59:55.892Z,1
2022-12-07T07:00:55.918Z,1
2022-12-07T07:01:55.954Z,1
2022-12-07T07:02:55.929Z,1
2022-12-07T07:03:55.882Z,1
2022-12-07T07:04:55.918Z,1
2022-12-07T07:05:55.946Z,1
2022-12-07T07:06:59.987Z,1
2022-12-07T07:08:20.909Z,1
2022-12-07T07:08:55.919Z,1
2022-12-07T07:09:55.897Z,1.2
2022-12-07T07:10:55.906Z,1.2
2022-12-07T07:11:55.894Z,1.2
2022-12-07T07:12:57.522Z,1.2
2022-12-07T07:13:55.867Z,1.2
2022-12-07T07:14:55.914Z,1.2
2022-12-07T07:15:55.870Z,1.2
2022-12-07T07:16:56.032Z,1.2
2022-12-07T07:17:55.865Z,1.2
2022-12-07T07:18:55.971Z,1.2
2022-12-07T07:19:55.916Z,1.6
2022-12-07T07:20:55.936Z,1.6
2022-12-07T07:21:55.930Z,1.6
2022-12-07T07:22:55.914Z,1.6
2022-12-07T07:23:55.912Z,1.6
2022-12-07T07:24:55.929Z,1.6
2022-12-07T07:25:55.884Z,1.6
2022-12-07T07:26:55.898Z,1.6
2022-12-07T07:27:55.890Z,1.6
2022-12-07T07:28:55.990Z,1.6
2022-12-07T07:29:55.927Z,1.6
2022-12-07T07:30:56.036Z,1.6
2022-12-07T07:31:55.936Z,1.6
2022-12-07T07:32:55.926Z,1.6
2022-12-07T07:33:55.896Z,1.6
2022-12-07T07:34:55.937Z,1.6
2022-12-07T07:35:55.955Z,1.6
2022-12-07T07:36:55.901Z,1.6
2022-12-07T07:37:55.906Z,1.6
2022-12-07T07:38:55.893Z,2.1
2022-12-07T07:39:55.926Z,2.1
2022-12-07T07:40:55.969Z,2.1
2022-12-07T07:41:55.998Z,2.1
2022-12-07T07:42:55.900Z,2.1
2022-12-07T07:43:55.905Z,2.1
2022-12-07T07:44:55.912Z,2.1
2022-12-07T07:45:55.957Z,2.1
2022-12-07T07:46:55.938Z,2.1
2022-12-07T07:47:55.908Z,2.1
2022-12-07T07:48:55.901Z,2.6
2022-12-07T07:49:55.905Z,2.6
2022-12-07T07:50:55.945Z,2.6
2022-12-07T07:51:55.910Z,2.6
2022-12-07T07:52:55.938Z,2.6
2022-12-07T07:53:55.947Z,2.6
2022-12-07T07:54:55.998Z,2.6
2022-12-07T07:55:55.939Z,2.6
2022-12-07T07:56:55.911Z,2.6
2022-12-07T07:57:55.915Z,2.6
2022-12-07T07:58:55.954Z,2.6
2022-12-07T07:59:55.960Z,2.6
2022-12-07T08:00:55.954Z,2.6
2022-12-07T08:01:56.165Z,2.6
2022-12-07T08:02:55.971Z,2.6
2022-12-07T08:03:55.911Z,2.6
2022-12-07T08:04:56.071Z,3.1
2022-12-07T08:05:55.913Z,3.1
2022-12-07T08:06:55.957Z,3.1
2022-12-07T08:07:56.029Z,3.1
2022-12-07T08:08:55.960Z,3.4
2022-12-07T08:09:55.938Z,3.4
2022-12-07T08:10:55.939Z,3.4
2022-12-07T08:11:55.929Z,3.7
2022-12-07T08:12:55.986Z,3.7
2022-12-07T08:13:55.984Z,3.7
2022-12-07T08:14:55.986Z,3.7
2022-12-07T08:15:56.061Z,3.7
2022-12-07T08:16:55.926Z,3.7
2022-12-07T08:17:55.977Z,3.7
2022-12-07T08:18:55.973Z,3.7
2022-12-07T08:19:55.921Z,4.2
2022-12-07T08:20:55.961Z,4.2
2022-12-07T08:21:56.003Z,4.2
2022-12-07T08:22:55.928Z,4.2
2022-12-07T08:23:55.968Z,4.2
2022-12-07T08:24:55.930Z,4.2
2022-12-07T08:25:55.973Z,4.2
2022-12-07T08:26:55.968Z,4.8
2022-12-07T08:27:55.970Z,4.8
2022-12-07T08:28:55.964Z,4.8
2022-12-07T08:29:55.967Z,4.8
2022-12-07T08:30:56.040Z,5.3
2022-12-07T08:31:55.972Z,5.3
2022-12-07T08:32:55.972Z,5.3
2022-12-07T08:33:55.966Z,5.3
2022-12-07T08:34:56.022Z,5.8
2022-12-07T08:35:55.969Z,5.8
2022-12-07T08:36:55.991Z,5.8
2022-12-07T08:37:55.978Z,5.8
2022-12-07T08:39:29.973Z,6.3
2022-12-07T08:39:55.969Z,6.3
2022-12-07T08:40:56.015Z,6.3
2022-12-07T08:41:55.982Z,6.3
2022-12-07T08:42:55.983Z,6.3
2022-12-07T08:43:56.971Z,6.8
2022-12-07T08:44:55.993Z,6.8
2022-12-07T08:45:56.054Z,6.8
2022-12-07T08:46:56.014Z,6.8
2022-12-07T08:47:56.998Z,7.3
2022-12-07T08:48:55.977Z,7.3
2022-12-07T08:49:55.987Z,7.3
2022-12-07T08:50:56.059Z,7.3
2022-12-07T08:51:56.008Z,7.3
2022-12-07T08:52:56.005Z,7.3
2022-12-07T08:53:56.008Z,7.8
2022-12-07T08:54:55.987Z,7.8
2022-12-07T08:55:55.949Z,7.8
2022-12-07T08:56:59.644Z,7.8
2022-12-07T08:57:55.990Z,7.8
2022-12-07T08:58:55.989Z,7.8
2022-12-07T08:59:56.005Z,8.3
2022-12-07T09:00:56.060Z,8.3
2022-12-07T09:01:56.046Z,8.3
2022-12-07T09:02:56.007Z,8.5
2022-12-07T09:03:56.009Z,8.5
2022-12-07T09:04:56.033Z,8.5
2022-12-07T09:05:56.104Z,8.6
2022-12-07T09:06:56.042Z,8.6
2022-12-07T09:07:56.056Z,8.6
2022-12-07T09:08:56.009Z,8.6
2022-12-07T09:09:55.992Z,8.6
2022-12-07T09:10:56.014Z,8.6
2022-12-07T09:11:55.970Z,8.6
2022-12-07T09:12:55.968Z,8.6
2022-12-07T09:13:55.994Z,8.6
2022-12-07T09:14:56.005Z,8.6
2022-12-07T09:15:56.062Z,8.6
2022-12-07T09:16:56.009Z,9.1
2022-12-07T09:17:56.040Z,9.1
2022-12-07T09:18:55.961Z,9.1
2022-12-07T09:19:56.022Z,9.1
2022-12-07T09:20:55.967Z,9.1
2022-12-07T09:21:56.018Z,9.1
2022-12-07T09:22:56.002Z,9.1
2022-12-07T09:23:55.998Z,9.1
2022-12-07T09:24:55.978Z,9.1
2022-12-07T09:25:56.022Z,9.1
2022-12-07T09:26:56.219Z,9.1
2022-12-07T09:27:55.980Z,9.1
2022-12-07T09:28:56.033Z,9.1
2022-12-07T09:29:56.039Z,9.1
2022-12-07T09:31:22.205Z,9.1
2022-12-07T09:31:56.074Z,9.1
2022-12-07T09:32:56.002Z,9.1
2022-12-07T09:33:56.089Z,9.1
2022-12-07T09:34:56.208Z,9.1
2022-12-07T09:35:55.982Z,9.1
2022-12-07T09:36:56.006Z,9.1
2022-12-07T09:37:55.987Z,9.1
2022-12-07T09:38:56.037Z,9.1
2022-12-07T09:39:56.189Z,9.1
2022-12-07T09:40:56.016Z,8.6
2022-12-07T09:41:56.024Z,8.6
2022-12-07T09:42:56.196Z,8.6
2022-12-07T09:43:56.018Z,8.6
2022-12-07T09:44:56.015Z,8.6
2022-12-07T09:45:56.093Z,8.6
2022-12-07T09:46:56.132Z,8.6
2022-12-07T09:47:56.024Z,8.6
2022-12-07T09:48:56.020Z,8.6
2022-12-07T09:49:56.012Z,8.6
2022-12-07T09:50:56.047Z,8.6
2022-12-07T09:51:56.010Z,8.6
2022-12-07T09:52:56.023Z,8.6
2022-12-07T09:53:56.078Z,8.6
2022-12-07T09:54:56.022Z,8.6
2022-12-07T09:55:56.025Z,8.6
2022-12-07T09:56:56.017Z,9.1
2022-12-07T09:57:56.057Z,9.1
2022-12-07T09:58:56.031Z,9.2
2022-12-07T09:59:56.057Z,9.2
2022-12-07T10:00:56.014Z,9.2
2022-12-07T10:01:56.124Z,9.2
2022-12-07T10:02:56.030Z,9.2
2022-12-07T10:03:56.037Z,9.2
2022-12-07T10:04:56.087Z,9.2
2022-12-07T10:05:56.025Z,9.2
2022-12-07T10:06:56.074Z,9.2
2022-12-07T10:07:56.081Z,9.2
2022-12-07T10:08:56.044Z,9.2
2022-12-07T10:09:56.021Z,9.2
2022-12-07T10:10:56.062Z,9.2
2022-12-07T10:11:56.059Z,9.7
2022-12-07T10:12:56.172Z,9.7
2022-12-07T10:13:56.054Z,9.7
2022-12-07T10:15:07.412Z,9.7
2022-12-07T10:15:56.143Z,9.7
2022-12-07T10:16:56.067Z,9.7
2022-12-07T10:17:56.077Z,9.7
2022-12-07T10:18:56.116Z,10.2
2022-12-07T10:19:56.064Z,10.2
2022-12-07T10:20:56.053Z,10.2
2022-12-07T10:21:56.052Z,10.2
2022-12-07T10:22:56.055Z,10.2
2022-12-07T10:23:56.057Z,10.2
2022-12-07T10:24:56.110Z,10.2
2022-12-07T10:25:56.075Z,10.2
2022-12-07T10:26:56.055Z,10.2
2022-12-07T10:27:56.073Z,10.2
2022-12-07T10:28:56.070Z,10.2
2022-12-07T10:29:56.122Z,10.2
2022-12-07T10:30:58.303Z,10.2
2022-12-07T10:31:56.183Z,10.2
2022-12-07T10:32:56.091Z,10.2
2022-12-07T10:33:56.094Z,10.2
2022-12-07T10:34:56.075Z,10.2
2022-12-07T10:35:56.073Z,10.2
2022-12-07T10:36:56.061Z,10.2
2022-12-07T10:37:56.074Z,10.2
2022-12-07T10:38:56.150Z,10.8
2022-12-07T10:39:56.096Z,10.8
2022-12-07T10:40:56.160Z,10.8
2022-12-07T10:41:56.092Z,10.8
2022-12-07T10:42:56.070Z,10.8
2022-12-07T10:43:57.151Z,10.8
2022-12-07T10:44:56.161Z,10.8
2022-12-07T10:46:03.857Z,10.8
2022-12-07T10:46:56.156Z,10.8
2022-12-07T10:47:56.085Z,10.8
2022-12-07T10:48:56.106Z,10.8
2022-12-07T10:49:56.334Z,10.8
2022-12-07T10:50:56.099Z,10.8
2022-12-07T10:51:56.085Z,10.8
2022-12-07T10:52:57.156Z,10.5
2022-12-07T10:53:56.076Z,10.5
2022-12-07T10:54:56.101Z,10.5
2022-12-07T10:55:56.106Z,10.5
2022-12-07T10:56:56.135Z,10.5
2022-12-07T10:57:56.126Z,10.5
2022-12-07T10:58:56.113Z,10.5
2022-12-07T10:59:56.086Z,10.5
2022-12-07T11:00:56.135Z,10.5
2022-12-07T11:01:56.147Z,10.5
2022-12-07T11:02:56.131Z,10.2
2022-12-07T11:03:56.101Z,10.2
2022-12-07T11:04:56.158Z,10.2
2022-12-07T11:05:56.094Z,10.2
2022-12-07T11:06:56.139Z,10.2
2022-12-07T11:07:57.250Z,10.2
2022-12-07T11:08:56.159Z,10.2
2022-12-07T11:10:09.438Z,10.2
2022-12-07T11:10:56.123Z,9.8
2022-12-07T11:11:56.131Z,9.8
2022-12-07T11:12:56.117Z,9.8
2022-12-07T11:13:56.102Z,9.8
2022-12-07T11:14:56.153Z,9.8
2022-12-07T11:15:56.194Z,9.8
2022-12-07T11:16:56.131Z,9.8
2022-12-07T11:17:56.122Z,9.8
2022-12-07T11:18:56.109Z,9.8
2022-12-07T11:19:56.161Z,9.8
2022-12-07T11:20:56.118Z,9.8
2022-12-07T11:21:56.113Z,9.8
2022-12-07T11:22:56.157Z,9.8
2022-12-07T11:23:56.105Z,9.8
2022-12-07T11:24:56.216Z,9.8
2022-12-07T11:25:56.114Z,9.8
2022-12-07T11:26:56.132Z,9.8
2022-12-07T11:27:56.129Z,9.8
2022-12-07T11:28:56.105Z,9.8
2022-12-07T11:29:56.133Z,9.8
2022-12-07T11:30:56.163Z,9.8
2022-12-07T11:31:56.174Z,9.8
2022-12-07T11:32:56.161Z,9.8
2022-12-07T11:33:56.200Z,9.8
2022-12-07T11:34:56.119Z,9.8
2022-12-07T11:35:56.166Z,9.8
2022-12-07T11:36:56.160Z,9.8
2022-12-07T11:37:56.159Z,9.8
2022-12-07T11:38:56.117Z,9.8
2022-12-07T11:39:56.189Z,9.8
2022-12-07T11:40:56.169Z,9.8
2022-12-07T11:41:56.160Z,9.8
2022-12-07T11:42:56.156Z,9.8
2022-12-07T11:43:56.139Z,9.8
2022-12-07T11:44:56.155Z,9.8
2022-12-07T11:45:56.209Z,9.8
2022-12-07T11:46:56.292Z,9.8
2022-12-07T11:47:56.130Z,9.8
2022-12-07T11:48:56.167Z,9.8
2022-12-07T11:49:56.175Z,9.8
2022-12-07T11:50:56.158Z,10.2
2022-12-07T11:51:56.211Z,10.4
2022-12-07T11:52:56.168Z,10.4
2022-12-07T11:53:56.171Z,10.4
2022-12-07T11:54:56.165Z,10.4
2022-12-07T11:55:56.151Z,10.4
2022-12-07T11:56:56.201Z,10.9
2022-12-07T11:57:56.154Z,10.9
2022-12-07T11:58:56.173Z,10.9
2022-12-07T11:59:56.181Z,11.4
2022-12-07T12:00:56.188Z,11.4
2022-12-07T12:01:56.210Z,11.4
2022-12-07T12:02:56.222Z,11.4
2022-12-07T12:03:56.227Z,11.4
2022-12-07T12:04:56.169Z,11.2
2022-12-07T12:05:56.172Z,11.2
2022-12-07T12:06:56.605Z,11.2
2022-12-07T12:09:56.165Z,10.7
2022-12-07T12:10:56.142Z,10.7
2022-12-07T12:14:56.274Z,11.2
2022-12-07T12:15:56.173Z,11.2
2022-12-07T12:16:56.201Z,11.2
2022-12-07T12:17:56.183Z,11.2
2022-12-07T12:18:56.183Z,11.2
2022-12-07T12:19:56.178Z,11.2
2022-12-07T12:20:56.254Z,11.2
2022-12-07T12:21:58.316Z,11.7
2022-12-07T12:22:56.186Z,11.7
2022-12-07T12:23:56.181Z,11.7
2022-12-07T12:24:56.181Z,11.7
2022-12-07T12:25:56.247Z,11.7
2022-12-07T12:26:56.197Z,11.7
2022-12-07T12:27:56.196Z,11.7
2022-12-07T12:28:56.175Z,11.7
2022-12-07T12:29:56.207Z,11.7
2022-12-07T12:30:56.173Z,11.7
2022-12-07T12:31:56.298Z,11.7
2022-12-07T12:32:56.236Z,11.7
2022-12-07T12:33:56.196Z,11.7
2022-12-07T12:34:56.265Z,11.2
2022-12-07T12:35:56.192Z,11.2
2022-12-07T12:36:56.354Z,11.2
2022-12-07T12:37:56.252Z,11.2
2022-12-07T12:38:56.222Z,11.2
2022-12-07T12:39:56.322Z,11.2
2022-12-07T12:40:56.309Z,11.2
2022-12-07T12:41:56.217Z,11.2
2022-12-07T12:42:56.276Z,11.2
2022-12-07T12:43:56.253Z,11.2
2022-12-07T12:44:56.249Z,11.2
2022-12-07T12:45:56.316Z,11.2
2022-12-07T12:46:56.261Z,11.2
2022-12-07T12:47:56.256Z,10.8
2022-12-07T12:48:56.281Z,10.7
2022-12-07T12:49:56.225Z,10.7
2022-12-07T12:50:56.284Z,10.7
2022-12-07T12:51:56.287Z,10.7
2022-12-07T12:52:56.271Z,10.7
2022-12-07T12:53:56.272Z,10.7
2022-12-07T12:54:56.276Z,10.7
2022-12-07T12:55:56.277Z,10.2
2022-12-07T12:56:56.245Z,10.2
2022-12-07T12:57:56.425Z,10.2
2022-12-07T12:58:56.244Z,10.2
2022-12-07T12:59:56.291Z,10.2
2022-12-07T13:00:56.324Z,10.2
2022-12-07T13:01:56.384Z,10.2
2022-12-07T13:02:56.392Z,10.2
2022-12-07T13:03:56.286Z,10.2
2022-12-07T13:04:56.254Z,10.2
2022-12-07T13:05:56.250Z,10.2
2022-12-07T13:06:56.285Z,10.2
2022-12-07T13:07:56.361Z,10.2
2022-12-07T13:08:56.280Z,10.2
2022-12-07T13:09:56.279Z,10.2
2022-12-07T13:10:56.345Z,10.2
2022-12-07T13:11:56.258Z,9.6
2022-12-07T13:12:56.299Z,9.6
2022-12-07T13:13:56.280Z,9.6
2022-12-07T13:14:56.293Z,9.6
2022-12-07T13:15:56.288Z,9.6
2022-12-07T13:16:56.445Z,9.6
2022-12-07T13:17:56.264Z,9.6
2022-12-07T13:18:56.302Z,9.6
2022-12-07T13:19:56.360Z,9.6
2022-12-07T13:20:56.274Z,9.1
2022-12-07T13:21:56.301Z,9.1
2022-12-07T13:22:56.311Z,9.1
2022-12-07T13:23:56.307Z,9.1
2022-12-07T13:24:56.312Z,9.1
2022-12-07T13:25:56.328Z,9.1
2022-12-07T13:26:56.348Z,9.1
2022-12-07T13:27:56.312Z,9.1
2022-12-07T13:28:56.354Z,9.1
2022-12-07T13:29:56.298Z,9.1
2022-12-07T13:30:56.354Z,9.1
2022-12-07T13:31:56.318Z,9.1
2022-12-07T13:32:56.313Z,9.1
2022-12-07T13:33:56.314Z,9.1
2022-12-07T13:34:56.303Z,9.1
2022-12-07T13:35:56.290Z,9.1
2022-12-07T13:36:56.309Z,9.1
2022-12-07T13:37:56.366Z,9.1
2022-12-07T13:38:56.310Z,8.8
2022-12-07T13:39:56.341Z,8.8
2022-12-07T13:40:56.292Z,8.8
2022-12-07T13:41:56.321Z,8.8
2022-12-07T13:42:56.298Z,8.8
2022-12-07T13:43:56.315Z,8.8
2022-12-07T13:44:56.381Z,8.8
2022-12-07T13:45:56.416Z,8.8
2022-12-07T13:46:56.322Z,8.8
2022-12-07T13:47:56.334Z,8.6
2022-12-07T13:48:56.376Z,8.6
2022-12-07T13:49:56.313Z,8.6
2022-12-07T13:50:56.345Z,8.6